»·PEaware :: N645PC KBNA-KSDF

N645PC :: KBNA-KSDF

FLIGHT INFORMATION

Flight Status: Arrived
Operator: Privately registered:
United States
More flights under this callsign
Pilot: Armando C. (16967)
Aircraft: PILATUS PC-12 EAGLE
(PC12)
More flights by this aircraft type
Origin: KBNA Nashville Intl
United States
Destination: KSDF Louisville Intl-Standiford
United States
More flights between these airports :: More routes between these airports
Route: KRSTA IIU
File this flight plan on PilotEdge
Remarks:
Altitude:
(Current/Filed)
15,000ft
Speed:
(Current/Filed)
255kts
Departed: 23-Sep-18 06:05 AM
Arrived: 23-Sep-18 06:51 AM
Distance/Time
Traveled:
132nm/0:46
Distance/Time
To Go:
Arrived

Flight Plot

Page will automatically refresh every two minutes.

Flight plan parsing failed; only flown route is shown


Map Options




Map Legend


Flown Route
Filed Route
Departure Airport
Arrival Airport
Navaid (VOR, NDB)
Fix

Horizontal Profiles

Position Reports

Time Latitude Longitude Heading Altitude Ground
Speed
23-Sep-18 05:49 36.116290 -86.679195 108 578ft 0kts
23-Sep-18 05:50 36.116290 -86.679195 108 578ft 0kts
23-Sep-18 05:51 36.116290 -86.679195 108 578ft 0kts
23-Sep-18 05:52 36.116290 -86.679195 108 578ft 0kts
23-Sep-18 05:53 36.116290 -86.679195 108 578ft 0kts
23-Sep-18 05:54 36.116290 -86.679195 108 578ft 0kts
23-Sep-18 05:55 36.116290 -86.679194 108 578ft 0kts
23-Sep-18 05:56 36.116290 -86.679194 108 578ft 0kts
23-Sep-18 05:57 36.116290 -86.679194 108 578ft 0kts
23-Sep-18 05:58 36.116290 -86.679194 108 578ft 0kts
23-Sep-18 05:59 36.116289 -86.679193 108 578ft 0kts
23-Sep-18 06:00 36.117973 -86.678279 14 574ft 8kts
23-Sep-18 06:01 36.117602 -86.680839 196 583ft 17kts
23-Sep-18 06:02 36.114332 -86.683560 331 591ft 20kts
23-Sep-18 06:03 36.116314 -86.684766 334 591ft 0kts
23-Sep-18 06:04 36.116314 -86.684766 334 591ft 0kts
23-Sep-18 06:05 36.116314 -86.684765 334 591ft 0kts
23-Sep-18 06:06 36.116716 -86.684975 338 591ft 13kts
23-Sep-18 06:07 36.132653 -86.680527 17 1084ft 120kts
23-Sep-18 06:08 36.165891 -86.667158 34 3155ft 138kts
23-Sep-18 06:09 36.164540 -86.635287 147 3992ft 171kts
23-Sep-18 06:10 36.158037 -86.602570 43 4435ft 165kts
23-Sep-18 06:11 36.179039 -86.579400 37 5575ft 141kts
23-Sep-18 06:12 36.203603 -86.553373 36 6902ft 162kts
23-Sep-18 06:13 36.220910 -86.537466 13 7724ft 166kts
23-Sep-18 06:14 36.250215 -86.529115 8 8704ft 178kts
23-Sep-18 06:15 36.296454 -86.516535 7 10104ft 190kts
23-Sep-18 06:16 36.345044 -86.503355 7 11497ft 198kts
23-Sep-18 06:17 36.386863 -86.491993 7 12660ft 202kts
23-Sep-18 06:18 36.438937 -86.477757 7 14104ft 198kts
23-Sep-18 06:19 36.493832 -86.462906 7 14997ft 225kts
23-Sep-18 06:20 36.558782 -86.445107 8 14998ft 255kts
23-Sep-18 06:21 36.628120 -86.426067 8 15001ft 262kts
23-Sep-18 06:22 36.698762 -86.406759 8 15002ft 264kts
23-Sep-18 06:23 36.768555 -86.378444 18 15002ft 267kts
23-Sep-18 06:24 36.833508 -86.346115 18 15000ft 268kts
23-Sep-18 06:25 36.901653 -86.312215 18 15001ft 267kts
23-Sep-18 06:26 36.963388 -86.274495 27 15004ft 269kts
23-Sep-18 06:27 37.027566 -86.227954 27 15006ft 268kts
23-Sep-18 06:28 37.082585 -86.187982 27 15008ft 267kts
23-Sep-18 06:29 37.138289 -86.147448 27 14971ft 267kts
23-Sep-18 06:30 37.199651 -86.102711 27 14971ft 266kts
23-Sep-18 06:31 37.263089 -86.056344 28 14683ft 267kts
23-Sep-18 06:32 37.325720 -86.010489 28 13693ft 263kts
23-Sep-18 06:33 37.387680 -85.965063 28 12702ft 260kts
23-Sep-18 06:34 37.443332 -85.924139 28 11778ft 245kts
23-Sep-18 06:35 37.497951 -85.883918 27 10832ft 238kts
23-Sep-18 06:36 37.548324 -85.846811 27 9942ft 234kts
23-Sep-18 06:37 37.589904 -85.816142 27 9196ft 231kts
23-Sep-18 06:38 37.629003 -85.787259 27 8486ft 228kts
23-Sep-18 06:39 37.668330 -85.758205 28 7780ft 234kts
23-Sep-18 06:40 37.712270 -85.725543 28 7002ft 235kts
23-Sep-18 06:41 37.754735 -85.694013 28 6245ft 233kts
23-Sep-18 06:42 37.806751 -85.655371 28 5306ft 230kts
23-Sep-18 06:43 37.850577 -85.623700 17 4506ft 227kts
23-Sep-18 06:44 37.903618 -85.635010 345 3979ft 206kts
23-Sep-18 06:45 37.951537 -85.651197 345 3981ft 189kts
23-Sep-18 06:46 37.990241 -85.663684 344 3767ft 196kts
23-Sep-18 06:47 38.026749 -85.676670 344 3166ft 208kts
23-Sep-18 06:48 38.062680 -85.688943 344 2584ft 160kts
23-Sep-18 06:49 38.095669 -85.700289 346 1911ft 122kts
23-Sep-18 06:50 38.124861 -85.710109 346 1344ft 115kts
23-Sep-18 06:51 38.151017 -85.718993 345 813ft 100kts
23-Sep-18 06:52 38.175264 -85.727227 344 477ft 66kts
23-Sep-18 06:53 38.182755 -85.728445 80 491ft 0kts
23-Sep-18 06:54 38.183396 -85.727101 65 493ft 14kts
23-Sep-18 06:55 38.183893 -85.726661 148 494ft 0kts
23-Sep-18 06:56 38.183893 -85.726661 148 494ft 0kts
23-Sep-18 06:57 38.183893 -85.726661 148 494ft 0kts
23-Sep-18 06:58 38.183893 -85.726661 148 494ft 0kts
23-Sep-18 06:59 38.183893 -85.726661 148 494ft 0kts
23-Sep-18 07:00 38.183893 -85.726661 148 494ft 0kts

Navigation Log

Ident Type
Flight plan parsing failed, navigation log unavailable